Astro Chloe — SVAL7 — position and weather

sailwx.info

Track history (hours):
 
Tides and Currents Weather Stations Pressure Air Temp Water Temp Dewpoint Dewpoint Depression Visibility Wind Speed Wind Dir Waves Ship Positions

Astro Chloe

Last reported at 2016-Aug-24 21:10 UTC. Time now 2016-Sep-27 01:57 UTC.
Position S 27°54' E 033°22'.
Warning: this ship's position is 33 days out of date.

Length 333 m; draft 20.6 m.

Type: Ship (hazmat cat A). MMSI: 240839000.

Date/timePositionNaut miles runAvg speedWind from/ knotsBaromVisibWave heightAir tempDewpointWater temp
2016-Aug-24 21:10S 27°54' E 033°22'1013.5
2016-Aug-24 20:27S 28°00' E 033°14'1213.3
2016-Aug-24 19:34S 28°09' E 033°05'1312.8
2016-Aug-24 18:34S 28°18' E 032°55'1212.5
2016-Aug-24 17:34S 28°27' E 032°45'1212.4
2016-Aug-24 16:34S 28°35' E 032°35'1212.2
2016-Aug-24 15:34S 28°44' E 032°25'1110.5
2016-Aug-24 14:34S 28°51' E 032°16'1 1.2
2016-Aug-24 13:34S 28°52' E 032°15'1 1.4
2016-Aug-24 12:34S 28°53' E 032°14'8 7.6
2016-Aug-24 11:34S 29°00' E 032°12'1110.6
2016-Aug-24 10:34S 29°10' E 032°08'1111.1
2016-Aug-24 09:34S 29°20' E 032°03'1110.6
2016-Aug-24 08:34S 29°28' E 031°54'1211.6
2016-Aug-24 07:34S 29°34' E 031°43'1312.9
2016-Aug-24 06:34S 29°41' E 031°30'2210.5
2016-Aug-24 04:30S 29°54' E 031°10'6 6.8
2016-Aug-24 03:34S 29°60' E 031°14'6 6.5
2016-Aug-24 02:34S 30°06' E 031°14'1110.9
2016-Aug-24 01:33S 30°17' E 031°13'1110.6
2016-Aug-24 00:34S 30°27' E 031°08'1110.7
2016-Aug-23 23:34S 30°36' E 031°02'2310.7
2016-Aug-23 21:26S 30°56' E 030°50'  
Track history (hours):
 
Tides and Currents Weather Stations Pressure Air Temp Water Temp Dewpoint Dewpoint Depression Visibility Wind Speed Wind Dir Waves Ship Positions

Astro Chloe

Last reported at 2016-Aug-24 21:10 UTC. Time now 2016-Sep-27 01:57 UTC.
Position S 27°54' E 033°22'.
Warning: this ship's position is 33 days out of date.

Length 333 m; draft 20.6 m.

Type: Ship (hazmat cat A). MMSI: 240839000.

Date/timePositionNaut miles runAvg speedWind from/ knotsBaromVisibWave heightAir tempDewpointWater temp
2016-Aug-24 21:10S 27°54' E 033°22'1013.5
2016-Aug-24 20:27S 28°00' E 033°14'1213.3
2016-Aug-24 19:34S 28°09' E 033°05'1312.8
2016-Aug-24 18:34S 28°18' E 032°55'1212.5
2016-Aug-24 17:34S 28°27' E 032°45'1212.4
2016-Aug-24 16:34S 28°35' E 032°35'1212.2
2016-Aug-24 15:34S 28°44' E 032°25'1110.5
2016-Aug-24 14:34S 28°51' E 032°16'1 1.2
2016-Aug-24 13:34S 28°52' E 032°15'1 1.4
2016-Aug-24 12:34S 28°53' E 032°14'8 7.6
2016-Aug-24 11:34S 29°00' E 032°12'1110.6
2016-Aug-24 10:34S 29°10' E 032°08'1111.1
2016-Aug-24 09:34S 29°20' E 032°03'1110.6
2016-Aug-24 08:34S 29°28' E 031°54'1211.6
2016-Aug-24 07:34S 29°34' E 031°43'1312.9
2016-Aug-24 06:34S 29°41' E 031°30'2210.5
2016-Aug-24 04:30S 29°54' E 031°10'6 6.8
2016-Aug-24 03:34S 29°60' E 031°14'6 6.5
2016-Aug-24 02:34S 30°06' E 031°14'1110.9
2016-Aug-24 01:33S 30°17' E 031°13'1110.6
2016-Aug-24 00:34S 30°27' E 031°08'1110.7
2016-Aug-23 23:34S 30°36' E 031°02'2310.7
2016-Aug-23 21:26S 30°56' E 030°50'  

Dump ship's entire track history